Time;durP1;ratioP1;P1;durP2;ratioP2;P2;SDS_P1;SDS_P2;PMS_P1;PMS_P2;Temp;Humidity;BMP_temperature;BMP_pressure;BME280_temperature;BME280_humidity;BME280_pressure;Samples;Min_cycle;Max_cycle;Signal;HPM_P1;HPM_P2
2021/01/11 00:01:35;;;;;;;21.77;7.12;;;-4.20;99.90;;;;;;1915943;74;21070;-70
2021/01/11 00:04:01;;;;;;;18.73;8.58;;;-4.30;99.90;;;;;;1926600;74;21154;-70
2021/01/11 00:06:27;;;;;;;21.02;8.25;;;-4.40;99.90;;;;;;1922036;74;21056;-70
2021/01/11 00:08:53;;;;;;;13.13;6.90;;;-4.50;99.90;;;;;;1918555;75;21028;-70
2021/01/11 00:11:19;;;;;;;15.35;7.97;;;-4.60;99.90;;;;;;1928291;74;21137;-70
2021/01/11 00:13:45;;;;;;;19.55;6.97;;;-4.60;99.90;;;;;;1917040;74;21059;-70
2021/01/11 00:16:12;;;;;;;13.53;7.62;;;-4.50;99.90;;;;;;1921562;73;21069;-70
2021/01/11 00:18:38;;;;;;;18.05;7.28;;;-4.60;99.90;;;;;;1919817;74;21134;-71
2021/01/11 00:21:04;;;;;;;12.73;8.10;;;-4.70;99.90;;;;;;1914032;74;21078;-69
2021/01/11 00:23:30;;;;;;;12.18;6.72;;;-4.60;99.90;;;;;;1908402;75;21183;-70
2021/01/11 00:25:56;;;;;;;11.60;7.15;;;-4.50;99.90;;;;;;1909814;75;21152;-70
2021/01/11 00:28:22;;;;;;;13.58;7.25;;;-4.40;99.90;;;;;;1916087;74;21554;-70
2021/01/11 00:30:49;;;;;;;15.40;7.28;;;-4.40;99.90;;;;;;1916269;74;21577;-70
2021/01/11 00:33:15;;;;;;;15.40;7.62;;;-4.40;99.90;;;;;;1910052;74;21488;-70
2021/01/11 00:35:41;;;;;;;20.88;8.18;;;-4.40;99.90;;;;;;1903310;74;21565;-70
2021/01/11 00:38:07;;;;;;;18.80;8.25;;;-4.40;99.90;;;;;;1916032;74;21519;-70
2021/01/11 00:40:33;;;;;;;26.05;8.30;;;-4.50;99.90;;;;;;1916110;74;21058;-70
2021/01/11 00:42:59;;;;;;;14.20;7.42;;;-4.50;99.90;;;;;;1913539;74;21144;-70
2021/01/11 00:45:25;;;;;;;21.10;9.08;;;-4.70;99.90;;;;;;1913257;74;21083;-69
2021/01/11 00:47:51;;;;;;;13.78;7.22;;;-4.80;99.90;;;;;;1922402;73;21042;-70
2021/01/11 00:50:18;;;;;;;16.82;7.12;;;-4.80;99.90;;;;;;1913872;74;21121;-70
2021/01/11 00:52:44;;;;;;;16.48;7.62;;;-4.80;99.90;;;;;;1916968;74;21074;-70
2021/01/11 00:55:10;;;;;;;14.68;6.62;;;-4.70;99.90;;;;;;1923750;74;21068;-70
2021/01/11 00:57:36;;;;;;;18.35;8.95;;;-4.70;99.90;;;;;;1926771;74;21047;-70
2021/01/11 01:00:02;;;;;;;14.78;6.92;;;-4.70;99.90;;;;;;1918191;75;21055;-70
2021/01/11 01:02:28;;;;;;;16.87;7.62;;;-4.70;99.90;;;;;;1914202;74;21169;-70
2021/01/11 01:04:54;;;;;;;14.50;7.83;;;-4.70;99.90;;;;;;1914924;74;21086;-70
2021/01/11 01:07:20;;;;;;;14.07;6.62;;;-4.70;99.90;;;;;;1924693;74;21116;-70
2021/01/11 01:09:47;;;;;;;16.40;7.85;;;-4.70;99.90;;;;;;1916256;74;21078;-70
2021/01/11 01:12:13;;;;;;;14.65;7.30;;;-4.70;99.90;;;;;;1912076;75;21173;-70
2021/01/11 01:14:39;;;;;;;12.93;6.75;;;-4.70;99.90;;;;;;1917876;74;21138;-70
2021/01/11 01:17:05;;;;;;;15.05;6.45;;;-4.60;99.90;;;;;;1910904;74;21037;-70
2021/01/11 01:19:31;;;;;;;16.67;7.58;;;-4.70;99.90;;;;;;1906766;75;21082;-70
2021/01/11 01:21:57;;;;;;;14.43;8.03;;;-4.80;99.90;;;;;;1898678;74;21084;-70
2021/01/11 01:24:23;;;;;;;16.48;7.72;;;-4.90;99.90;;;;;;1920283;74;21569;-69
2021/01/11 01:26:49;;;;;;;12.68;7.37;;;-4.90;99.90;;;;;;1915409;75;21498;-70
2021/01/11 01:29:15;;;;;;;12.70;6.90;;;-4.90;99.90;;;;;;1912883;74;21546;-70
2021/01/11 01:31:42;;;;;;;22.25;7.33;;;-5.00;99.90;;;;;;1914068;74;21506;-70
2021/01/11 01:34:08;;;;;;;18.23;7.87;;;-5.00;99.90;;;;;;1916175;74;21598;-70
2021/01/11 01:36:34;;;;;;;10.88;6.67;;;-5.00;99.90;;;;;;1898744;74;21064;-70
2021/01/11 01:39:00;;;;;;;11.35;6.45;;;-4.90;99.90;;;;;;1920047;74;21066;-70
2021/01/11 01:41:26;;;;;;;16.35;6.78;;;-4.90;99.90;;;;;;1918346;75;21055;-71
2021/01/11 01:43:52;;;;;;;14.10;6.95;;;-4.90;99.90;;;;;;1904748;74;21078;-70
2021/01/11 01:46:18;;;;;;;15.88;6.65;;;-4.90;99.90;;;;;;1906554;74;21098;-70
2021/01/11 01:48:44;;;;;;;17.87;6.72;;;-5.00;99.90;;;;;;1896400;74;21162;-70
2021/01/11 01:51:13;;;;;;;14.28;6.92;;;-5.10;99.90;;;;;;1892129;74;21128;-70
2021/01/11 01:53:38;;;;;;;12.37;7.00;;;-5.10;99.90;;;;;;1924113;74;21564;-70
2021/01/11 01:56:05;;;;;;;13.53;6.25;;;-5.10;99.90;;;;;;1916143;74;21628;-70
2021/01/11 01:58:31;;;;;;;14.93;7.58;;;-5.00;99.90;;;;;;1919481;73;21070;-70
2021/01/11 02:00:57;;;;;;;15.30;6.35;;;-5.00;99.90;;;;;;1916112;74;21053;-71
2021/01/11 02:03:23;;;;;;;13.48;7.37;;;-5.00;99.90;;;;;;1908875;74;21081;-70
2021/01/11 02:05:49;;;;;;;15.53;6.25;;;-5.10;99.90;;;;;;1906472;74;21070;-71
2021/01/11 02:08:15;;;;;;;11.43;6.37;;;-5.20;99.90;;;;;;1900390;74;21069;-70
2021/01/11 02:10:42;;;;;;;15.68;7.37;;;-5.30;99.90;;;;;;1907220;74;21076;-71
2021/01/11 02:13:08;;;;;;;11.18;6.50;;;-5.40;99.90;;;;;;1902714;75;21136;-70
2021/01/11 02:15:35;;;;;;;15.65;7.42;;;-5.50;99.90;;;;;;1896347;74;21449;-71
2021/01/11 02:18:01;;;;;;;12.28;6.90;;;-5.50;99.90;;;;;;1904627;74;21069;-70
2021/01/11 02:20:27;;;;;;;14.50;6.35;;;-5.40;99.90;;;;;;1903382;74;21077;-70
2021/01/11 02:22:53;;;;;;;14.18;7.72;;;-5.40;99.90;;;;;;1902973;74;21146;-70
2021/01/11 02:25:19;;;;;;;16.45;6.62;;;-5.40;99.90;;;;;;1906591;74;21080;-70
2021/01/11 02:27:45;;;;;;;12.23;5.45;;;-5.50;99.90;;;;;;1908026;74;21096;-71
2021/01/11 02:30:12;;;;;;;12.03;6.92;;;-5.50;99.90;;;;;;1900652;74;21138;-70
2021/01/11 02:32:38;;;;;;;17.10;6.42;;;-5.40;99.90;;;;;;1896473;75;21061;-70
2021/01/11 02:35:04;;;;;;;10.38;5.83;;;-5.30;99.90;;;;;;1906567;75;21029;-70
2021/01/11 02:37:30;;;;;;;14.78;7.40;;;-5.30;99.90;;;;;;1898433;74;21084;-70
2021/01/11 02:39:56;;;;;;;14.43;5.83;;;-5.40;99.90;;;;;;1914692;74;21141;-71
2021/01/11 02:42:22;;;;;;;8.43;5.78;;;-5.40;99.90;;;;;;1917830;74;21153;-71
2021/01/11 02:44:48;;;;;;;14.28;6.22;;;-5.30;99.90;;;;;;1907509;74;21194;-70
2021/01/11 02:47:15;;;;;;;16.37;6.72;;;-5.40;99.90;;;;;;1906542;74;21097;-70
2021/01/11 02:49:41;;;;;;;13.10;7.17;;;-5.40;99.90;;;;;;1905326;74;21072;-70
2021/01/11 02:52:07;;;;;;;11.63;5.55;;;-5.40;99.90;;;;;;1898447;74;21073;-70
2021/01/11 02:54:33;;;;;;;11.30;5.80;;;-5.40;99.90;;;;;;1908205;74;21084;-70
2021/01/11 02:56:59;;;;;;;15.75;6.53;;;-5.40;99.90;;;;;;1901787;74;21073;-71
2021/01/11 02:59:25;;;;;;;14.03;6.70;;;-5.50;99.90;;;;;;1898075;74;21146;-70
2021/01/11 03:01:51;;;;;;;10.88;6.20;;;-5.40;99.90;;;;;;1919646;74;21066;-71
2021/01/11 03:04:17;;;;;;;10.03;5.60;;;-5.40;99.90;;;;;;1924945;74;21073;-70
2021/01/11 03:06:44;;;;;;;13.60;6.92;;;-5.50;99.90;;;;;;1916308;74;21217;-71
2021/01/11 03:09:10;;;;;;;13.72;7.00;;;-5.60;99.90;;;;;;1917566;74;21117;-70
2021/01/11 03:11:36;;;;;;;11.40;6.53;;;-5.60;99.90;;;;;;1922653;73;21053;-70
2021/01/11 03:14:02;;;;;;;14.18;7.03;;;-5.60;99.90;;;;;;1933937;74;21148;-71
2021/01/11 03:16:28;;;;;;;9.78;6.03;;;-5.70;99.90;;;;;;1916144;75;21109;-70
2021/01/11 03:18:54;;;;;;;12.13;6.22;;;-5.80;99.90;;;;;;1917804;74;21070;-69
2021/01/11 03:21:20;;;;;;;19.50;7.25;;;-5.80;99.90;;;;;;1915987;74;21081;-70
2021/01/11 03:23:46;;;;;;;15.10;6.55;;;-5.80;99.90;;;;;;1917497;74;21566;-71
2021/01/11 03:26:13;;;;;;;15.28;7.33;;;-5.80;99.90;;;;;;1912074;74;21494;-70
2021/01/11 03:28:39;;;;;;;13.58;6.90;;;-5.70;99.90;;;;;;1912186;74;21574;-69
2021/01/11 03:31:05;;;;;;;13.13;7.00;;;-5.60;99.90;;;;;;1921748;74;21500;-70
2021/01/11 03:33:31;;;;;;;15.45;7.78;;;-5.60;99.90;;;;;;1919030;74;21604;-69
2021/01/11 03:35:57;;;;;;;13.38;6.90;;;-5.50;99.90;;;;;;1916284;74;21039;-69
2021/01/11 03:38:23;;;;;;;13.93;6.83;;;-5.60;99.90;;;;;;1923068;73;21236;-70
2021/01/11 03:40:51;;;;;;;15.78;7.20;;;-5.70;99.90;;;;;;1935389;72;21114;-70
2021/01/11 03:43:17;;;;;;;11.00;6.10;;;-5.80;99.90;;;;;;1922726;74;21481;-71
2021/01/11 03:45:43;;;;;;;11.90;5.72;;;-5.80;99.90;;;;;;1915335;74;21459;-69
2021/01/11 03:48:09;;;;;;;9.23;6.33;;;-5.80;99.90;;;;;;1918635;73;21531;-70
2021/01/11 03:50:35;;;;;;;14.15;6.90;;;-5.80;99.90;;;;;;1924075;74;21459;-70
2021/01/11 03:53:02;;;;;;;10.70;5.65;;;-5.90;99.90;;;;;;1920375;74;21552;-70
2021/01/11 03:55:28;;;;;;;12.68;7.05;;;-5.90;99.90;;;;;;1916256;75;21459;-69
2021/01/11 03:57:54;;;;;;;11.55;6.42;;;-5.90;99.90;;;;;;1915813;74;21067;-70
2021/01/11 04:00:20;;;;;;;16.95;7.85;;;-5.90;99.90;;;;;;1915197;74;21163;-70
2021/01/11 04:02:46;;;;;;;13.53;6.45;;;-6.00;99.90;;;;;;1916201;74;21136;-70
2021/01/11 04:05:12;;;;;;;15.13;5.78;;;-5.90;99.90;;;;;;1927707;74;21041;-70
2021/01/11 04:07:38;;;;;;;12.07;6.37;;;-5.90;99.90;;;;;;1916762;74;21063;-71
2021/01/11 04:10:04;;;;;;;13.40;6.62;;;-5.80;99.90;;;;;;1921870;74;21069;-70
2021/01/11 04:12:30;;;;;;;9.70;5.92;;;-5.80;99.90;;;;;;1914865;73;21152;-70
2021/01/11 04:14:57;;;;;;;13.55;6.20;;;-5.90;99.90;;;;;;1914464;75;21124;-70
2021/01/11 04:17:23;;;;;;;10.05;5.83;;;-5.90;99.90;;;;;;1917182;74;21055;-70
2021/01/11 04:19:49;;;;;;;11.45;5.37;;;-5.90;99.90;;;;;;1915358;74;21209;-69
2021/01/11 04:22:15;;;;;;;17.12;5.80;;;-5.90;99.90;;;;;;1902851;74;21073;-71
2021/01/11 04:24:41;;;;;;;12.73;6.33;;;-5.90;99.90;;;;;;1891774;74;21049;-70
2021/01/11 04:27:07;;;;;;;10.30;5.80;;;-5.90;99.90;;;;;;1900968;74;21069;-70
2021/01/11 04:29:33;;;;;;;10.78;6.22;;;-6.00;99.90;;;;;;1921157;74;21055;-70
2021/01/11 04:31:59;;;;;;;8.00;5.10;;;-5.90;99.90;;;;;;1917172;74;21130;-69
2021/01/11 04:34:26;;;;;;;11.88;6.40;;;-5.80;99.90;;;;;;1910974;74;21042;-70
2021/01/11 04:36:52;;;;;;;14.55;7.35;;;-5.80;99.90;;;;;;1905762;74;21076;-71
2021/01/11 04:39:18;;;;;;;11.68;6.75;;;-5.80;99.90;;;;;;1905751;75;21073;-70
2021/01/11 04:41:44;;;;;;;8.08;5.15;;;-5.80;99.90;;;;;;1905817;75;21123;-70
2021/01/11 04:44:10;;;;;;;12.30;5.67;;;-5.90;99.90;;;;;;1895390;74;21228;-70
2021/01/11 04:46:36;;;;;;;21.37;6.17;;;-5.80;99.90;;;;;;1898919;74;21042;-69
2021/01/11 04:49:02;;;;;;;13.75;6.90;;;-5.80;99.90;;;;;;1892964;74;21138;-69
2021/01/11 04:51:28;;;;;;;10.82;5.58;;;-5.80;99.90;;;;;;1921165;75;21171;-70
2021/01/11 04:53:55;;;;;;;12.70;6.62;;;-5.80;99.90;;;;;;1916526;75;21145;-70
2021/01/11 04:56:21;;;;;;;12.35;6.40;;;-5.80;99.90;;;;;;1911226;74;21050;-71
2021/01/11 04:58:47;;;;;;;18.70;6.78;;;-5.90;99.90;;;;;;1906083;74;21146;-71
2021/01/11 05:01:13;;;;;;;11.63;6.28;;;-5.90;99.90;;;;;;1898648;74;21076;-70
2021/01/11 05:03:39;;;;;;;14.00;6.78;;;-5.90;99.90;;;;;;1905668;74;21184;-70
2021/01/11 05:06:05;;;;;;;11.45;6.37;;;-5.90;99.90;;;;;;1903113;74;21057;-70
2021/01/11 05:08:31;;;;;;;11.73;6.33;;;-5.90;99.90;;;;;;1906233;74;21134;-69
2021/01/11 05:10:57;;;;;;;14.40;7.03;;;-5.90;99.90;;;;;;1898812;74;21165;-69
2021/01/11 05:13:24;;;;;;;12.73;6.65;;;-5.90;99.90;;;;;;1902758;74;21080;-72
2021/01/11 05:15:50;;;;;;;16.30;7.50;;;-6.00;99.90;;;;;;1895311;75;21030;-69
2021/01/11 05:18:16;;;;;;;15.25;7.72;;;-6.00;99.90;;;;;;1895741;74;21492;-70
2021/01/11 05:20:42;;;;;;;14.70;7.37;;;-5.90;99.90;;;;;;1893335;74;21558;-70
2021/01/11 05:23:08;;;;;;;18.82;7.08;;;-5.90;99.90;;;;;;1906058;74;21500;-70
2021/01/11 05:25:34;;;;;;;18.37;8.25;;;-5.90;99.90;;;;;;1893786;74;21485;-70
2021/01/11 05:28:00;;;;;;;14.73;7.62;;;-5.90;99.90;;;;;;1904497;74;21586;-70
2021/01/11 05:30:27;;;;;;;12.10;6.85;;;-5.90;99.90;;;;;;1901004;74;21382;-70
2021/01/11 05:32:53;;;;;;;16.55;7.75;;;-5.90;99.90;;;;;;1905972;75;21249;-71
2021/01/11 05:35:19;;;;;;;13.35;6.80;;;-5.90;99.90;;;;;;1905867;74;21166;-69
2021/01/11 05:37:46;;;;;;;16.05;8.68;;;-5.90;99.90;;;;;;1902773;74;21073;-69
2021/01/11 05:40:14;;;;;;;15.68;7.47;;;-5.80;99.90;;;;;;1905612;75;21065;-69
2021/01/11 05:42:42;;;;;;;13.53;7.50;;;-5.80;99.90;;;;;;1919054;74;21503;-69
2021/01/11 05:45:08;;;;;;;14.95;8.28;;;-5.80;99.90;;;;;;1910268;74;21547;-69
2021/01/11 05:47:34;;;;;;;13.22;7.58;;;-5.80;99.90;;;;;;1924085;73;21500;-70
2021/01/11 05:50:00;;;;;;;19.05;9.25;;;-5.70;99.90;;;;;;1920975;74;21639;-69
2021/01/11 05:52:26;;;;;;;17.90;8.80;;;-5.70;99.90;;;;;;1912557;74;21507;-70
2021/01/11 05:54:52;;;;;;;11.75;7.20;;;-5.70;99.90;;;;;;1909904;74;21471;-70
2021/01/11 05:57:18;;;;;;;17.07;8.03;;;-5.70;99.90;;;;;;1921293;73;21119;-69
2021/01/11 05:59:44;;;;;;;18.52;9.00;;;-5.60;99.90;;;;;;1916142;74;21073;-70
2021/01/11 06:02:10;;;;;;;18.07;8.20;;;-5.60;99.90;;;;;;1917149;74;21144;-70
2021/01/11 06:04:37;;;;;;;23.80;9.58;;;-5.60;99.90;;;;;;1915443;74;21050;-70
2021/01/11 06:07:03;;;;;;;15.43;7.53;;;-5.60;99.90;;;;;;1913103;74;21064;-72
2021/01/11 06:09:29;;;;;;;17.92;8.18;;;-5.50;99.90;;;;;;1931355;74;21050;-70
2021/01/11 06:11:55;;;;;;;16.23;9.05;;;-5.50;99.90;;;;;;1915693;75;21142;-70
2021/01/11 06:14:21;;;;;;;11.83;7.10;;;-5.60;99.90;;;;;;1912114;74;21075;-70
2021/01/11 06:16:47;;;;;;;16.62;7.55;;;-5.70;99.90;;;;;;1915619;74;21136;-70
2021/01/11 06:19:13;;;;;;;17.10;8.35;;;-5.70;99.90;;;;;;1915667;74;21189;-71
2021/01/11 06:21:39;;;;;;;14.13;8.33;;;-5.70;99.90;;;;;;1919146;74;21179;-70
2021/01/11 06:24:08;;;;;;;12.50;6.97;;;-5.70;99.90;;;;;;1916952;74;21082;-70
2021/01/11 06:26:33;;;;;;;15.25;7.72;;;-5.70;99.90;;;;;;1921665;74;21096;-70
2021/01/11 06:29:00;;;;;;;14.95;7.12;;;-5.70;99.90;;;;;;1944893;74;21169;-70
2021/01/11 06:31:26;;;;;;;11.97;6.92;;;-5.80;99.90;;;;;;1922066;74;21076;-70
2021/01/11 06:33:52;;;;;;;13.35;7.17;;;-5.80;99.90;;;;;;1912662;74;21116;-70
2021/01/11 06:36:18;;;;;;;14.75;7.42;;;-5.80;99.90;;;;;;1911765;74;21065;-71
2021/01/11 06:38:44;;;;;;;10.13;5.80;;;-5.70;99.90;;;;;;1921323;74;21068;-71
2021/01/11 06:41:10;;;;;;;11.78;6.80;;;-5.80;99.90;;;;;;1916370;74;21068;-71
2021/01/11 06:43:36;;;;;;;17.10;8.00;;;-5.80;99.90;;;;;;1914613;75;21052;-70
2021/01/11 06:46:02;;;;;;;16.00;7.50;;;-5.80;99.90;;;;;;1912125;74;21077;-70
2021/01/11 06:48:28;;;;;;;15.98;8.00;;;-5.90;99.90;;;;;;1916332;74;21064;-70
2021/01/11 06:50:55;;;;;;;13.28;6.80;;;-5.90;99.90;;;;;;1918812;74;21162;-70
2021/01/11 06:53:21;;;;;;;20.02;7.80;;;-6.00;99.90;;;;;;1917511;74;21065;-70
2021/01/11 06:55:47;;;;;;;15.32;7.03;;;-6.10;99.90;;;;;;1912169;75;21473;-68
2021/01/11 06:58:13;;;;;;;15.98;7.72;;;-6.10;99.90;;;;;;1918797;74;21215;-69
2021/01/11 07:00:39;;;;;;;22.40;7.67;;;-6.10;99.90;;;;;;1921899;74;21497;-69
2021/01/11 07:03:05;;;;;;;15.18;8.10;;;-6.10;99.90;;;;;;1921967;74;21037;-69
2021/01/11 07:05:32;;;;;;;11.60;7.25;;;-6.00;99.90;;;;;;1922450;73;21068;-69
2021/01/11 07:07:59;;;;;;;14.13;7.28;;;-6.00;99.90;;;;;;1921539;75;21557;-70
2021/01/11 07:10:25;;;;;;;16.45;7.08;;;-6.10;99.90;;;;;;1912656;75;21489;-74
2021/01/11 07:12:51;;;;;;;13.18;6.67;;;-6.10;99.90;;;;;;1920931;74;21633;-74
2021/01/11 07:15:17;;;;;;;15.20;7.03;;;-6.10;99.90;;;;;;1922288;74;21458;-75
2021/01/11 07:17:43;;;;;;;16.20;6.72;;;-6.10;99.90;;;;;;1922157;73;21025;-74
2021/01/11 07:20:09;;;;;;;17.25;7.53;;;-6.00;99.90;;;;;;1913261;75;21100;-77
2021/01/11 07:22:35;;;;;;;14.28;7.17;;;-6.00;99.90;;;;;;1914604;74;21068;-74
2021/01/11 07:25:02;;;;;;;14.35;7.28;;;-6.00;99.90;;;;;;1915306;74;21151;-73
2021/01/11 07:27:28;;;;;;;13.50;7.60;;;-6.00;99.90;;;;;;1915445;74;21113;-74
2021/01/11 07:29:54;;;;;;;21.15;8.60;;;-6.10;99.90;;;;;;1913911;74;21076;-73
2021/01/11 07:32:20;;;;;;;14.38;7.15;;;-6.00;99.90;;;;;;1914926;74;21197;-73
2021/01/11 07:34:46;;;;;;;14.83;7.22;;;-6.00;99.90;;;;;;1921776;74;21138;-73
2021/01/11 07:37:12;;;;;;;19.77;7.80;;;-6.00;99.90;;;;;;1915753;75;21128;-74
2021/01/11 07:39:38;;;;;;;16.25;7.75;;;-5.90;99.90;;;;;;1913920;74;21154;-75
2021/01/11 07:42:04;;;;;;;14.43;8.08;;;-5.90;99.90;;;;;;1919248;74;21084;-73
2021/01/11 07:44:34;;;;;;;16.27;7.72;;;-5.80;99.90;;;;;;1913715;74;21521;-71
2021/01/11 07:47:00;;;;;;;21.23;7.08;;;-5.90;99.90;;;;;;1911841;74;21494;-72
2021/01/11 07:49:26;;;;;;;24.90;10.48;;;-5.90;99.90;;;;;;1916611;74;21557;-74
2021/01/11 07:51:52;;;;;;;18.23;8.03;;;-5.90;99.90;;;;;;1911883;75;21488;-73
2021/01/11 07:54:18;;;;;;;15.75;8.58;;;-5.90;99.90;;;;;;1911734;75;21132;-72
2021/01/11 07:56:44;;;;;;;16.17;8.70;;;-5.90;99.90;;;;;;1913540;74;21058;-74
2021/01/11 07:59:10;;;;;;;20.80;9.38;;;-5.80;99.90;;;;;;1914024;74;21104;-73
2021/01/11 08:01:37;;;;;;;15.00;7.10;;;-5.80;99.90;;;;;;1913368;73;21126;-74
2021/01/11 08:04:03;;;;;;;17.30;8.53;;;-5.80;99.90;;;;;;1915397;74;21086;-73
2021/01/11 08:06:29;;;;;;;17.37;8.30;;;-5.80;99.90;;;;;;1916947;74;21484;-74
2021/01/11 08:08:55;;;;;;;16.25;8.03;;;-5.70;99.90;;;;;;1917289;75;21409;-74
2021/01/11 08:11:21;;;;;;;16.00;7.67;;;-5.70;99.90;;;;;;1911742;74;21497;-73
2021/01/11 08:13:47;;;;;;;14.83;7.92;;;-5.60;99.90;;;;;;1914280;73;21151;-75
2021/01/11 08:16:13;;;;;;;20.80;7.55;;;-5.60;99.90;;;;;;1914893;75;21054;-74
2021/01/11 08:18:40;;;;;;;17.27;8.43;;;-5.50;99.90;;;;;;1913618;73;21069;-74
2021/01/11 08:21:06;;;;;;;22.22;8.45;;;-5.40;99.90;;;;;;1916669;74;21068;-74
2021/01/11 08:23:32;;;;;;;15.18;7.15;;;-5.40;99.90;;;;;;1916285;74;21053;-75
2021/01/11 08:25:58;;;;;;;18.00;9.23;;;-5.30;99.90;;;;;;1914435;74;21211;-74
2021/01/11 08:28:27;;;;;;;16.30;8.10;;;-5.30;99.90;;;;;;1921790;73;21041;-76
2021/01/11 08:30:52;;;;;;;12.37;7.90;;;-5.30;99.90;;;;;;1912803;73;21066;-75
2021/01/11 08:33:18;;;;;;;19.32;8.25;;;-5.20;99.90;;;;;;1911923;75;21078;-75
2021/01/11 08:35:44;;;;;;;21.65;10.03;;;-5.10;99.90;;;;;;1911896;75;21042;-75
2021/01/11 08:38:12;;;;;;;22.80;9.88;;;-5.00;99.90;;;;;;1911766;74;21202;-76
2021/01/11 08:40:38;;;;;;;14.28;8.05;;;-5.00;99.90;;;;;;1918411;74;21038;-75
2021/01/11 08:43:04;;;;;;;14.33;7.67;;;-5.10;99.90;;;;;;1911813;74;21030;-74
2021/01/11 08:45:30;;;;;;;18.75;9.13;;;-5.00;99.90;;;;;;1911988;74;21194;-75
2021/01/11 08:47:56;;;;;;;15.48;8.75;;;-4.90;99.90;;;;;;1911826;74;21220;-74
2021/01/11 08:50:23;;;;;;;14.63;8.28;;;-4.80;99.90;;;;;;1916473;74;21542;-74
2021/01/11 08:52:50;;;;;;;14.58;7.83;;;-4.50;99.90;;;;;;1913999;74;21469;-76
2021/01/11 08:55:18;;;;;;;14.58;7.83;;;-4.50;99.90;;;;;;1916938;74;21072;-76
2021/01/11 08:57:44;;;;;;;14.87;7.75;;;-4.30;99.90;;;;;;1913049;74;21144;-74
2021/01/11 09:00:15;;;;;;;21.60;8.68;;;-4.30;99.90;;;;;;1911701;75;21096;-77
2021/01/11 09:02:38;;;;;;;23.73;8.63;;;-4.20;99.90;;;;;;1911137;74;21518;-77
2021/01/11 09:05:05;;;;;;;19.40;7.28;;;-4.30;99.90;;;;;;1914069;74;21120;-75
2021/01/11 09:07:31;;;;;;;14.60;7.22;;;-4.20;99.90;;;;;;1918390;74;21069;-76
2021/01/11 09:09:58;;;;;;;17.17;7.65;;;-4.00;99.90;;;;;;1912330;74;21478;-74
2021/01/11 09:15:09;;;;;;;13.48;7.40;;;-3.90;99.90;;;;;;1942569;73;21108;-75
2021/01/11 09:17:35;;;;;;;17.48;7.42;;;-3.80;99.90;;;;;;1958958;73;21054;-74
2021/01/11 09:20:01;;;;;;;18.95;7.92;;;-3.70;99.90;;;;;;1917154;75;21165;-74
2021/01/11 09:22:27;;;;;;;13.03;7.00;;;-3.30;99.90;;;;;;1957755;73;21062;-74
2021/01/11 09:24:53;;;;;;;15.88;8.03;;;-3.20;99.90;;;;;;1952743;73;21128;-74
2021/01/11 09:27:20;;;;;;;17.42;8.00;;;-3.60;99.90;;;;;;1958775;73;21136;-74
2021/01/11 09:29:46;;;;;;;23.65;8.93;;;-3.40;99.90;;;;;;1917167;74;21114;-73
2021/01/11 09:32:12;;;;;;;18.67;8.30;;;-3.40;99.90;;;;;;1958794;73;21039;-78
2021/01/11 09:34:38;;;;;;;15.23;7.25;;;-3.30;99.90;;;;;;1915896;74;21064;-76
2021/01/11 09:37:09;;;;;;;12.20;7.55;;;-3.10;99.90;;;;;;1959908;73;21525;-78
2021/01/11 09:39:32;;;;;;;14.47;7.47;;;-2.70;99.90;;;;;;1915754;74;21167;-77
2021/01/11 09:41:58;;;;;;;13.98;7.67;;;-2.70;99.90;;;;;;1958967;73;21133;-80
2021/01/11 09:44:25;;;;;;;16.82;9.08;;;-2.50;99.90;;;;;;1917239;74;21072;-81
2021/01/11 09:46:51;;;;;;;13.93;7.12;;;-2.20;99.90;;;;;;1958398;73;21471;-72
2021/01/11 09:49:17;;;;;;;11.83;7.08;;;-2.20;99.90;;;;;;1953227;73;21058;-72
2021/01/11 09:51:43;;;;;;;16.67;7.95;;;-1.60;99.90;;;;;;1957818;73;21201;-73
2021/01/11 09:54:10;;;;;;;15.38;7.50;;;-1.30;99.90;;;;;;1952506;73;21066;-74
2021/01/11 09:56:36;;;;;;;21.30;7.67;;;-1.30;99.90;;;;;;1955913;73;21062;-72
2021/01/11 09:59:02;;;;;;;17.55;8.08;;;-1.60;99.90;;;;;;1952501;73;21136;-72
2021/01/11 10:01:28;;;;;;;17.30;9.45;;;-1.80;99.90;;;;;;1958184;72;21031;-72
2021/01/11 10:03:54;;;;;;;18.17;7.67;;;-1.50;99.90;;;;;;1916895;74;21067;-72
2021/01/11 10:06:20;;;;;;;17.30;8.38;;;-1.40;99.90;;;;;;1949915;73;21063;-73
2021/01/11 10:08:46;;;;;;;19.48;8.48;;;-1.20;99.90;;;;;;1958354;73;21113;-73
2021/01/11 10:11:12;;;;;;;15.63;8.30;;;-1.50;99.90;;;;;;1958162;73;21081;-71
2021/01/11 10:13:38;;;;;;;20.75;8.50;;;-1.50;99.90;;;;;;1957525;73;21097;-72
2021/01/11 10:16:05;;;;;;;18.48;7.97;;;-1.20;99.90;;;;;;1956279;73;21058;-71
2021/01/11 10:18:31;;;;;;;20.88;7.80;;;-0.70;99.90;;;;;;1941886;72;21136;-73
2021/01/11 10:20:57;;;;;;;19.40;8.00;;;-0.30;99.90;;;;;;1955942;73;21035;-72
2021/01/11 10:23:23;;;;;;;13.83;7.42;;;-0.70;99.90;;;;;;1954091;73;21471;-71
2021/01/11 10:25:49;;;;;;;18.95;8.95;;;-1.20;99.90;;;;;;1959041;73;21533;-73
2021/01/11 10:28:15;;;;;;;16.62;8.85;;;-1.40;99.90;;;;;;1937969;73;21568;-70
2021/01/11 10:30:41;;;;;;;17.37;7.22;;;-1.50;99.90;;;;;;1959773;73;21489;-71
2021/01/11 10:33:08;;;;;;;17.00;8.08;;;-0.80;99.90;;;;;;1914909;74;21517;-73
2021/01/11 10:35:34;;;;;;;17.87;7.42;;;-0.10;99.90;;;;;;1958177;73;21117;-71
2021/01/11 10:38:00;;;;;;;13.22;8.18;;;0.20;99.90;;;;;;1917369;74;21068;-72
2021/01/11 10:40:26;;;;;;;14.68;6.92;;;-0.20;99.90;;;;;;1957252;73;21070;-72
2021/01/11 10:42:52;;;;;;;12.13;7.35;;;0.20;99.90;;;;;;1916433;74;21134;-71
2021/01/11 10:45:19;;;;;;;14.80;7.97;;;0.00;99.90;;;;;;1945305;73;21146;-71
2021/01/11 10:47:45;;;;;;;15.58;8.48;;;0.00;99.90;;;;;;1957381;73;21078;-73
2021/01/11 10:50:11;;;;;;;14.05;7.83;;;0.50;99.90;;;;;;1916742;74;21165;-71
2021/01/11 10:52:39;;;;;;;12.00;7.15;;;0.90;99.90;;;;;;1948585;73;21613;-73
2021/01/11 10:55:05;;;;;;;19.30;7.75;;;0.90;99.90;;;;;;1959873;73;21158;-73
2021/01/11 10:57:31;;;;;;;15.00;8.25;;;1.20;99.90;;;;;;1917698;74;21135;-73
2021/01/11 10:59:57;;;;;;;22.80;8.78;;;1.70;99.90;;;;;;1942524;73;21201;-72
2021/01/11 11:02:23;;;;;;;10.53;6.65;;;1.40;99.90;;;;;;1934154;73;21097;-73
2021/01/11 11:04:49;;;;;;;15.58;7.85;;;1.40;99.90;;;;;;1960232;73;21548;-72
2021/01/11 11:07:16;;;;;;;15.72;8.25;;;1.50;99.90;;;;;;1917938;74;21066;-70
2021/01/11 11:09:42;;;;;;;14.43;7.40;;;1.20;99.90;;;;;;1958732;73;21054;-72
2021/01/11 11:12:08;;;;;;;18.37;8.53;;;1.60;99.90;;;;;;1915829;74;21145;-73
2021/01/11 11:14:34;;;;;;;11.93;6.20;;;2.10;99.90;;;;;;1957218;73;21058;-72
2021/01/11 11:17:00;;;;;;;12.70;7.60;;;2.00;99.90;;;;;;1914623;74;21143;-72
2021/01/11 11:19:26;;;;;;;17.80;7.90;;;2.30;99.90;;;;;;1955607;73;21074;-73
2021/01/11 11:21:52;;;;;;;14.85;7.28;;;1.70;99.90;;;;;;1927376;72;21548;-72
2021/01/11 11:24:18;;;;;;;15.43;8.40;;;1.00;99.90;;;;;;1955717;73;21568;-76
2021/01/11 11:26:45;;;;;;;15.03;7.75;;;0.90;99.90;;;;;;1915730;74;21578;-74
2021/01/11 11:29:11;;;;;;;15.03;6.95;;;1.20;99.90;;;;;;1958851;73;21054;-72
2021/01/11 11:31:37;;;;;;;12.50;7.08;;;1.30;99.90;;;;;;1913552;74;21076;-72
2021/01/11 11:34:03;;;;;;;15.35;8.48;;;1.00;99.90;;;;;;1958281;73;21117;-73
2021/01/11 11:36:29;;;;;;;18.95;8.15;;;0.70;99.90;;;;;;1914831;74;21190;-74
2021/01/11 11:38:55;;;;;;;16.82;7.05;;;0.70;99.90;;;;;;1955186;73;21035;-72
2021/01/11 11:41:21;;;;;;;18.05;8.60;;;1.00;99.90;;;;;;1918457;74;21198;-75
2021/01/11 11:43:47;;;;;;;15.98;7.75;;;0.90;99.90;;;;;;1957145;73;21051;-73
2021/01/11 11:46:13;;;;;;;15.75;8.18;;;1.10;99.90;;;;;;1917702;75;21060;-71
2021/01/11 11:48:40;;;;;;;14.47;6.55;;;1.20;99.90;;;;;;1960307;73;21094;-72
2021/01/11 11:51:06;;;;;;;16.97;6.78;;;1.30;99.90;;;;;;1916185;74;21212;-71
2021/01/11 11:53:32;;;;;;;12.98;7.78;;;0.90;99.90;;;;;;1955301;72;21035;-73
2021/01/11 11:55:58;;;;;;;13.70;7.03;;;1.10;99.90;;;;;;1939720;72;21154;-74
2021/01/11 11:58:24;;;;;;;15.45;7.85;;;2.30;99.90;;;;;;1958497;73;21144;-73
2021/01/11 12:00:50;;;;;;;19.12;8.53;;;1.90;99.90;;;;;;1916091;74;21524;-70
2021/01/11 12:03:16;;;;;;;15.72;7.78;;;2.20;99.90;;;;;;1960163;73;21550;-71
2021/01/11 12:05:42;;;;;;;12.65;6.45;;;3.10;99.90;;;;;;1915312;74;21508;-71
2021/01/11 12:08:09;;;;;;;20.60;8.30;;;3.50;99.90;;;;;;1958426;72;21031;-73
2021/01/11 12:10:35;;;;;;;15.78;6.67;;;2.50;99.90;;;;;;1915958;74;21121;-72
2021/01/11 12:13:01;;;;;;;14.35;6.80;;;2.70;99.90;;;;;;1959233;73;21066;-70
2021/01/11 12:15:27;;;;;;;18.60;7.80;;;3.70;99.90;;;;;;1936506;72;21066;-71
2021/01/11 12:17:53;;;;;;;15.93;7.90;;;2.80;99.90;;;;;;1958242;73;21042;-71
2021/01/11 12:20:19;;;;;;;14.70;6.83;;;2.70;99.90;;;;;;1915981;74;21120;-69
2021/01/11 12:22:45;;;;;;;13.35;6.92;;;2.60;99.90;;;;;;1958253;73;21116;-72
2021/01/11 12:25:11;;;;;;;14.00;7.65;;;2.50;99.90;;;;;;1915881;74;21146;-69
2021/01/11 12:27:38;;;;;;;16.55;7.55;;;2.00;99.90;;;;;;1956202;72;21132;-73
2021/01/11 12:30:04;;;;;;;14.63;6.87;;;2.80;99.90;;;;;;1918546;74;21126;-74
2021/01/11 12:32:30;;;;;;;18.45;7.72;;;2.60;99.90;;;;;;1957958;72;21121;-75
2021/01/11 12:34:56;;;;;;;16.57;8.13;;;2.90;99.90;;;;;;1920408;75;21037;-72